createdAt,value
2023-02-27T00:01:04.304Z,-5.13
2023-02-27T00:03:31.821Z,-5.00
2023-02-27T00:06:00.646Z,-5.20
2023-02-27T00:08:28.449Z,-5.27
2023-02-27T00:10:55.952Z,-5.16
2023-02-27T00:13:23.460Z,-5.02
2023-02-27T00:15:51.709Z,-4.99
2023-02-27T00:18:19.265Z,-5.24
2023-02-27T00:20:46.768Z,-5.26
2023-02-27T00:23:16.322Z,-5.19
2023-02-27T00:25:43.818Z,-5.00
2023-02-27T00:28:11.343Z,-4.86
2023-02-27T00:30:38.802Z,-5.09
2023-02-27T00:33:06.307Z,-5.19
2023-02-27T00:35:33.754Z,-5.23
2023-02-27T00:38:01.313Z,-5.22
2023-02-27T00:40:31.204Z,-5.34
2023-02-27T00:42:58.892Z,-5.34
2023-02-27T00:45:26.340Z,-5.30
2023-02-27T00:47:53.821Z,-5.27
2023-02-27T00:50:22.312Z,-5.27
2023-02-27T00:52:49.829Z,-5.12
2023-02-27T00:55:17.346Z,-5.10
2023-02-27T00:57:46.215Z,-5.01
2023-02-27T01:00:14.358Z,-5.02
2023-02-27T01:02:41.923Z,-5.33
2023-02-27T01:05:10.342Z,-5.39
2023-02-27T01:07:38.141Z,-5.42
2023-02-27T01:10:06.254Z,-5.39
2023-02-27T01:12:33.736Z,-5.43
2023-02-27T01:15:02.547Z,-5.45
2023-02-27T01:17:30.086Z,-5.44
2023-02-27T01:19:57.658Z,-5.44
2023-02-27T01:22:25.424Z,-5.47
2023-02-27T01:24:53.019Z,-5.45
2023-02-27T01:27:20.605Z,-5.45
2023-02-27T01:29:48.100Z,-5.47
2023-02-27T01:32:17.125Z,-5.43
2023-02-27T01:34:44.661Z,-5.46
2023-02-27T01:37:12.138Z,-5.44
2023-02-27T01:39:39.632Z,-5.35
2023-02-27T01:42:07.809Z,-5.33
2023-02-27T01:45:11.495Z,-5.30
2023-02-27T01:47:41.922Z,-5.22
2023-02-27T01:50:10.988Z,-5.12
2023-02-27T01:52:40.752Z,-5.08
2023-02-27T01:55:12.539Z,-4.98
2023-02-27T01:57:40.554Z,-4.84
2023-02-27T02:00:12.034Z,-4.79
2023-02-27T02:02:43.811Z,-4.61
2023-02-27T02:05:11.473Z,-4.56
2023-02-27T02:07:39.564Z,-4.54
2023-02-27T02:10:07.789Z,-4.47
2023-02-27T02:12:37.086Z,-4.44
2023-02-27T02:15:05.511Z,-4.40
2023-02-27T02:17:40.160Z,-4.32
2023-02-27T02:23:30.245Z,-4.19
2023-02-27T02:26:33.537Z,-4.13
2023-02-27T02:29:41.478Z,-4.05
2023-02-27T02:32:39.605Z,-3.95
2023-02-27T02:35:29.756Z,-3.93
2023-02-27T02:38:26.428Z,-3.92
2023-02-27T02:40:56.837Z,-3.87
2023-02-27T02:43:28.793Z,-3.82
2023-02-27T02:46:03.332Z,-3.86
2023-02-27T02:48:33.998Z,-3.91
2023-02-27T02:51:06.006Z,-3.88
2023-02-27T02:53:38.830Z,-3.94
2023-02-27T02:56:12.340Z,-3.95
2023-02-27T02:58:46.961Z,-3.86
2023-02-27T03:01:17.114Z,-3.85
2023-02-27T03:03:46.458Z,-3.86
2023-02-27T03:06:17.322Z,-3.93
2023-02-27T03:08:48.062Z,-3.86
2023-02-27T03:11:16.914Z,-3.94
2023-02-27T03:13:48.059Z,-3.94
2023-02-27T03:16:18.350Z,-4.00
2023-02-27T03:18:52.195Z,-4.07
2023-02-27T03:21:24.458Z,-4.07
2023-02-27T03:23:54.377Z,-4.09
2023-02-27T03:26:26.135Z,-4.13
2023-02-27T03:28:57.156Z,-4.12
2023-02-27T03:31:31.148Z,-4.14
2023-02-27T03:34:02.993Z,-4.25
2023-02-27T03:36:37.867Z,-4.26
2023-02-27T03:39:09.486Z,-4.39
2023-02-27T03:41:42.965Z,-4.36
2023-02-27T03:44:13.322Z,-4.33
2023-02-27T03:46:41.354Z,-4.33
2023-02-27T03:49:09.125Z,-4.31
2023-02-27T03:51:37.091Z,-4.32
2023-02-27T03:54:07.864Z,-4.69
2023-02-27T03:56:41.374Z,-4.78
2023-02-27T03:59:08.988Z,-4.92
2023-02-27T04:01:36.457Z,-5.01
2023-02-27T04:04:06.462Z,-5.02
2023-02-27T04:06:53.217Z,-5.00
2023-02-27T04:09:27.926Z,-4.98
2023-02-27T04:12:12.859Z,-4.99
2023-02-27T04:14:47.685Z,-4.94
2023-02-27T04:17:22.899Z,-4.80
2023-02-27T04:20:14.597Z,-4.81
2023-02-27T04:22:46.140Z,-4.85
2023-02-27T04:25:37.586Z,-4.85
2023-02-27T04:28:13.303Z,-4.84
2023-02-27T04:30:46.727Z,-5.05
2023-02-27T04:33:19.171Z,-4.99
2023-02-27T04:35:50.330Z,-5.02
2023-02-27T04:38:21.280Z,-4.99
2023-02-27T04:40:51.558Z,-5.00
2023-02-27T04:43:21.906Z,-5.13
2023-02-27T04:45:50.686Z,-5.20
2023-02-27T04:48:21.231Z,-5.32
2023-02-27T04:50:52.211Z,-5.28
2023-02-27T04:53:23.428Z,-5.20
2023-02-27T04:55:53.108Z,-5.28
2023-02-27T04:58:25.355Z,-5.33
2023-02-27T05:00:56.320Z,-5.39
2023-02-27T05:03:25.767Z,-5.43
2023-02-27T05:05:55.957Z,-5.53
2023-02-27T05:08:27.826Z,-5.53
2023-02-27T05:10:59.776Z,-5.65
2023-02-27T05:13:31.347Z,-5.48
2023-02-27T05:16:02.333Z,-5.53
2023-02-27T05:18:29.903Z,-5.57
2023-02-27T05:21:04.510Z,-5.55
2023-02-27T05:23:37.606Z,-5.57
2023-02-27T05:26:15.060Z,-5.61
2023-02-27T05:28:49.822Z,-5.50
2023-02-27T05:31:24.213Z,-5.04
2023-02-27T05:33:57.484Z,-5.24
2023-02-27T05:36:25.738Z,-5.52
2023-02-27T05:38:56.711Z,-5.37
2023-02-27T05:41:27.546Z,-5.27
2023-02-27T05:43:58.752Z,-5.58
2023-02-27T05:46:29.331Z,-5.52
2023-02-27T05:49:00.675Z,-5.67
2023-02-27T05:51:30.369Z,-5.83
2023-02-27T05:54:01.049Z,-5.90
2023-02-27T05:56:29.657Z,-5.95
2023-02-27T05:59:01.502Z,-6.02
2023-02-27T06:01:28.994Z,-6.02
2023-02-27T06:03:56.526Z,-5.94
2023-02-27T06:06:24.111Z,-5.71
2023-02-27T06:08:51.569Z,-5.72
2023-02-27T06:11:19.056Z,-5.99
2023-02-27T06:13:46.519Z,-6.02
2023-02-27T06:16:16.133Z,-6.03
2023-02-27T06:18:43.706Z,-6.05
2023-02-27T06:21:11.181Z,-6.09
2023-02-27T06:23:38.664Z,-6.14
2023-02-27T06:26:06.401Z,-6.14
2023-02-27T06:28:34.891Z,-6.08
2023-02-27T06:31:03.004Z,-6.10
2023-02-27T06:33:33.128Z,-6.09
2023-02-27T06:36:00.785Z,-6.06
2023-02-27T06:38:28.314Z,-6.04
2023-02-27T06:40:55.978Z,-6.00
2023-02-27T06:43:23.874Z,-5.99
2023-02-27T06:45:54.707Z,-5.91
2023-02-27T06:48:22.476Z,-5.90
2023-02-27T06:50:53.814Z,-5.79
2023-02-27T06:53:21.400Z,-5.71
2023-02-27T06:55:49.326Z,-5.55
2023-02-27T06:58:16.972Z,-5.32
2023-02-27T07:00:44.578Z,-5.17
2023-02-27T07:03:13.244Z,-4.90
2023-02-27T07:05:41.420Z,-4.65
2023-02-27T07:08:10.913Z,-4.35
2023-02-27T07:10:38.902Z,-4.27
2023-02-27T07:13:06.594Z,-4.27
2023-02-27T07:15:34.143Z,-3.99
2023-02-27T07:18:01.678Z,-3.90
2023-02-27T07:20:29.173Z,-3.62
2023-02-27T07:22:56.740Z,-4.05
2023-02-27T07:25:25.572Z,-3.59
2023-02-27T07:27:53.047Z,-3.62
2023-02-27T07:30:20.682Z,-3.68
2023-02-27T07:32:48.212Z,-3.59
2023-02-27T07:35:15.708Z,-3.61
2023-02-27T07:37:43.164Z,-3.58
2023-02-27T07:40:11.786Z,-3.53
2023-02-27T07:42:40.678Z,-3.04
2023-02-27T07:45:09.757Z,-2.70
2023-02-27T07:47:37.409Z,-2.67
2023-02-27T07:50:05.397Z,-3.08
2023-02-27T07:52:32.933Z,-3.06
2023-02-27T07:55:00.490Z,-3.03
2023-02-27T07:57:27.983Z,-2.83
2023-02-27T07:59:56.786Z,-2.03
2023-02-27T08:02:24.318Z,-1.84
2023-02-27T08:04:52.706Z,-1.96
2023-02-27T08:07:20.210Z,-1.88
2023-02-27T08:09:47.660Z,-1.60
2023-02-27T08:12:15.163Z,-1.63
2023-02-27T08:14:42.662Z,-1.24
2023-02-27T08:17:11.486Z,-1.45
2023-02-27T08:19:39.350Z,-1.35
2023-02-27T08:22:06.818Z,-1.38
2023-02-27T08:24:34.297Z,-1.97
2023-02-27T08:27:01.766Z,-1.39
2023-02-27T08:29:30.906Z,-1.03
2023-02-27T08:31:58.533Z,-1.67
2023-02-27T08:34:27.512Z,-1.75
2023-02-27T08:36:55.342Z,-1.45
2023-02-27T08:39:24.097Z,-1.81
2023-02-27T08:41:52.444Z,-1.33
2023-02-27T08:44:20.145Z,-1.79
2023-02-27T08:46:47.725Z,-1.55
2023-02-27T08:49:15.538Z,-1.94
2023-02-27T08:51:44.307Z,-0.98
2023-02-27T08:54:11.826Z,-0.42
2023-02-27T08:56:39.304Z,-0.77
2023-02-27T08:59:06.827Z,-0.71
2023-02-27T09:01:34.824Z,-0.22
2023-02-27T09:04:03.465Z,-0.24
2023-02-27T09:06:31.480Z,-0.76
2023-02-27T09:09:00.695Z,-0.57
2023-02-27T09:11:28.955Z,-0.46
2023-02-27T09:13:57.440Z,-0.44
2023-02-27T09:16:25.256Z,-1.08
2023-02-27T09:18:52.920Z,-0.71
2023-02-27T09:21:20.479Z,-0.51
2023-02-27T09:23:47.964Z,-0.30
2023-02-27T09:26:17.162Z,0.38
2023-02-27T09:28:44.778Z,0.02
2023-02-27T09:31:13.335Z,-0.28
2023-02-27T09:33:40.913Z,0.09
2023-02-27T09:36:09.088Z,-0.18
2023-02-27T09:38:38.525Z,0.13
2023-02-27T09:41:08.897Z,0.57
2023-02-27T09:43:41.162Z,0.15
2023-02-27T09:46:08.968Z,0.08
2023-02-27T09:48:40.630Z,-0.21
2023-02-27T09:51:08.501Z,1.20
2023-02-27T09:53:39.458Z,1.56
2023-02-27T09:56:10.744Z,0.99
2023-02-27T09:58:45.191Z,0.61
2023-02-27T10:01:16.756Z,1.82
2023-02-27T10:03:56.180Z,0.32
2023-02-27T10:06:27.215Z,1.10
2023-02-27T10:09:10.177Z,0.39
2023-02-27T10:11:47.230Z,1.41
2023-02-27T10:14:26.630Z,1.40
2023-02-27T10:16:55.090Z,1.44
2023-02-27T10:19:27.407Z,0.40
2023-02-27T10:21:55.617Z,0.82
2023-02-27T10:24:27.624Z,1.42
2023-02-27T10:26:56.654Z,1.25
2023-02-27T10:29:30.173Z,0.23
2023-02-27T10:32:02.372Z,0.71
2023-02-27T10:34:31.748Z,0.90
2023-02-27T10:37:02.473Z,1.58
2023-02-27T10:39:30.894Z,0.65
2023-02-27T10:42:03.578Z,0.95
2023-02-27T10:44:33.306Z,0.81
2023-02-27T10:47:00.797Z,1.09
2023-02-27T10:49:32.356Z,1.92
2023-02-27T10:52:08.944Z,1.16
2023-02-27T10:54:37.192Z,1.31
2023-02-27T10:57:07.960Z,1.49
2023-02-27T10:59:40.105Z,1.37
2023-02-27T11:02:21.692Z,0.87
2023-02-27T11:04:53.745Z,1.13
2023-02-27T11:07:30.260Z,1.36
2023-02-27T11:10:16.719Z,1.16
2023-02-27T11:12:58.536Z,1.14
2023-02-27T11:15:31.456Z,3.00
2023-02-27T11:18:21.685Z,2.52
2023-02-27T11:20:50.864Z,1.80
2023-02-27T11:23:20.366Z,1.33
2023-02-27T11:25:48.112Z,1.75
2023-02-27T11:28:22.859Z,1.68
2023-02-27T11:31:00.225Z,2.65
2023-02-27T11:33:29.912Z,1.94
2023-02-27T11:35:58.713Z,2.02
2023-02-27T11:38:28.599Z,2.05
2023-02-27T11:40:57.803Z,2.28
2023-02-27T11:43:26.812Z,2.77
2023-02-27T11:46:05.196Z,2.36
2023-02-27T11:48:49.686Z,1.62
2023-02-27T11:51:25.243Z,2.08
2023-02-27T11:54:13.999Z,1.47
2023-02-27T11:56:44.555Z,2.06
2023-02-27T11:59:26.141Z,2.21
2023-02-27T12:02:00.766Z,2.51
2023-02-27T12:04:31.028Z,2.23
2023-02-27T12:07:02.557Z,3.09
2023-02-27T12:09:39.695Z,3.89
2023-02-27T12:12:15.515Z,2.29
2023-02-27T12:14:48.467Z,3.17
2023-02-27T12:17:22.637Z,3.51
2023-02-27T12:19:59.612Z,2.45
2023-02-27T12:22:30.232Z,1.88
2023-02-27T12:25:03.503Z,1.73
2023-02-27T12:27:37.747Z,1.64
2023-02-27T12:30:09.031Z,2.14
2023-02-27T12:32:41.896Z,2.91
2023-02-27T12:35:14.859Z,3.35
2023-02-27T12:37:42.368Z,3.04
2023-02-27T12:40:15.936Z,3.40
2023-02-27T12:43:10.883Z,2.69
2023-02-27T12:46:00.153Z,3.20
2023-02-27T12:48:37.806Z,4.14
2023-02-27T12:51:12.169Z,3.18
2023-02-27T12:54:05.964Z,2.31
2023-02-27T12:56:40.539Z,2.34
2023-02-27T12:59:14.269Z,3.17
2023-02-27T13:01:46.476Z,2.72
2023-02-27T13:04:20.465Z,2.45
2023-02-27T13:06:51.475Z,3.00
2023-02-27T13:09:29.127Z,2.40
2023-02-27T13:12:02.299Z,2.63
2023-02-27T13:14:35.697Z,2.57
2023-02-27T13:17:05.999Z,2.55
2023-02-27T13:19:37.832Z,2.80
2023-02-27T13:22:13.035Z,2.24
2023-02-27T13:24:45.103Z,2.78
2023-02-27T13:27:20.599Z,2.86
2023-02-27T13:29:55.424Z,2.83
2023-02-27T13:32:41.326Z,2.42
2023-02-27T13:35:22.019Z,2.62
2023-02-27T13:37:50.882Z,3.72
2023-02-27T13:40:42.366Z,2.39
2023-02-27T13:43:40.517Z,3.48
2023-02-27T13:46:23.575Z,4.20
2023-02-27T13:48:53.696Z,2.67
2023-02-27T13:51:46.565Z,3.75
2023-02-27T13:54:26.420Z,2.75
2023-02-27T13:57:18.313Z,3.44
2023-02-27T14:00:04.843Z,3.38
2023-02-27T14:02:59.204Z,2.72
2023-02-27T14:05:31.914Z,2.62
2023-02-27T14:08:06.637Z,2.54
2023-02-27T14:10:34.926Z,2.76
2023-02-27T14:13:04.490Z,2.93
2023-02-27T14:15:53.673Z,2.45
2023-02-27T14:18:58.079Z,2.46
2023-02-27T14:21:52.511Z,2.55
2023-02-27T14:24:24.492Z,3.44
2023-02-27T14:26:53.611Z,2.90
2023-02-27T14:29:23.948Z,2.28
2023-02-27T14:31:52.731Z,3.00
2023-02-27T14:34:22.516Z,2.30
2023-02-27T14:36:53.829Z,3.39
2023-02-27T14:39:26.905Z,2.27
2023-02-27T14:41:58.275Z,2.38
2023-02-27T14:44:27.857Z,2.37
2023-02-27T14:46:56.926Z,2.29
2023-02-27T14:49:26.598Z,2.70
2023-02-27T14:51:54.817Z,2.02
2023-02-27T14:54:25.040Z,2.41
2023-02-27T14:56:56.880Z,2.03
2023-02-27T14:59:25.232Z,2.53
2023-02-27T15:01:53.149Z,1.87
2023-02-27T15:04:21.795Z,2.02
2023-02-27T15:06:51.769Z,2.50
2023-02-27T15:09:24.617Z,2.30
2023-02-27T15:12:02.949Z,2.03
2023-02-27T15:14:33.336Z,2.14
2023-02-27T15:17:01.024Z,2.23
2023-02-27T15:19:30.430Z,1.75
2023-02-27T15:21:59.589Z,1.68
2023-02-27T15:24:35.279Z,1.64
2023-02-27T15:27:13.302Z,2.30
2023-02-27T15:29:42.911Z,1.61
2023-02-27T15:32:17.577Z,2.08
2023-02-27T15:34:45.568Z,2.58
2023-02-27T15:37:17.494Z,2.93
2023-02-27T15:39:47.084Z,3.14
2023-02-27T15:42:15.449Z,2.37
2023-02-27T15:44:45.175Z,1.99
2023-02-27T15:47:14.662Z,2.02
2023-02-27T15:49:43.110Z,1.94
2023-02-27T15:52:18.434Z,3.14
2023-02-27T15:54:52.205Z,2.73
2023-02-27T15:57:20.997Z,2.20
2023-02-27T15:59:48.664Z,3.29
2023-02-27T16:02:20.270Z,2.94
2023-02-27T16:04:48.188Z,2.98
2023-02-27T16:07:20.313Z,2.71
2023-02-27T16:09:52.016Z,3.51
2023-02-27T16:12:33.516Z,2.06
2023-02-27T16:15:25.262Z,2.21
2023-02-27T16:18:01.473Z,2.37
2023-02-27T16:20:41.552Z,2.54
2023-02-27T16:23:38.003Z,2.34
2023-02-27T16:26:20.774Z,2.87
2023-02-27T16:28:52.366Z,1.78
2023-02-27T16:31:25.985Z,2.33
2023-02-27T16:33:54.530Z,2.99
2023-02-27T16:36:24.073Z,2.19
2023-02-27T16:38:52.135Z,3.06
2023-02-27T16:41:23.128Z,2.10
2023-02-27T16:43:51.684Z,3.03
2023-02-27T16:46:21.036Z,2.51
2023-02-27T16:48:53.199Z,2.58
2023-02-27T16:51:26.796Z,1.47
2023-02-27T16:53:55.589Z,2.04
2023-02-27T16:56:37.248Z,1.79
2023-02-27T16:59:05.572Z,1.88
2023-02-27T17:01:34.582Z,2.35
2023-02-27T17:04:02.536Z,2.82
2023-02-27T17:06:30.759Z,2.79
2023-02-27T17:08:58.580Z,2.27
2023-02-27T17:11:27.404Z,2.01
2023-02-27T17:13:54.907Z,2.42
2023-02-27T17:16:22.449Z,2.51
2023-02-27T17:18:50.053Z,2.79
2023-02-27T17:21:17.533Z,3.08
2023-02-27T17:23:45.065Z,1.50
2023-02-27T17:26:12.581Z,1.02
2023-02-27T17:28:41.391Z,1.82
2023-02-27T17:31:09.219Z,0.68
2023-02-27T17:33:36.929Z,0.89
2023-02-27T17:36:05.008Z,0.69
2023-02-27T17:38:32.582Z,0.62
2023-02-27T17:41:00.222Z,0.37
2023-02-27T17:43:28.079Z,0.47
2023-02-27T17:45:57.778Z,1.18
2023-02-27T17:48:25.322Z,1.85
2023-02-27T17:50:52.999Z,1.36
2023-02-27T17:53:20.488Z,0.76
2023-02-27T17:55:48.218Z,1.97
2023-02-27T17:58:18.671Z,1.93
2023-02-27T18:00:46.344Z,2.00
2023-02-27T18:03:15.160Z,2.25
2023-02-27T18:05:49.000Z,1.77
2023-02-27T18:08:16.754Z,0.37
2023-02-27T18:10:47.639Z,0.01
2023-02-27T18:13:15.171Z,-0.09
2023-02-27T18:15:42.866Z,0.07
2023-02-27T18:18:11.021Z,0.17
2023-02-27T18:20:40.399Z,0.04
2023-02-27T18:23:08.620Z,-0.06
2023-02-27T18:25:36.523Z,1.24
2023-02-27T18:28:04.338Z,1.62
2023-02-27T18:30:33.435Z,1.30
2023-02-27T18:33:01.087Z,1.71
2023-02-27T18:35:28.709Z,2.05
2023-02-27T18:37:57.919Z,1.61
2023-02-27T18:40:26.468Z,2.00
2023-02-27T18:42:54.230Z,2.18
2023-02-27T18:45:22.361Z,2.29
2023-02-27T18:47:49.861Z,1.13
2023-02-27T18:50:18.370Z,1.26
2023-02-27T18:52:47.159Z,1.50
2023-02-27T18:55:17.457Z,1.99
2023-02-27T18:57:46.203Z,1.80
2023-02-27T19:00:14.489Z,1.30
2023-02-27T19:02:43.208Z,0.62
2023-02-27T19:05:11.964Z,-0.02
2023-02-27T19:07:39.744Z,0.26
2023-02-27T19:10:08.692Z,0.46
2023-02-27T19:12:37.485Z,-0.15
2023-02-27T19:15:05.566Z,1.13
2023-02-27T19:17:33.454Z,1.23
2023-02-27T19:20:01.305Z,1.53
2023-02-27T19:22:30.316Z,0.53
2023-02-27T19:24:57.829Z,1.21
2023-02-27T19:27:25.592Z,0.05
2023-02-27T19:29:54.408Z,-0.02
2023-02-27T19:32:22.528Z,0.18
2023-02-27T19:34:50.180Z,0.37
2023-02-27T19:37:17.682Z,0.63
2023-02-27T19:39:46.643Z,-0.09
2023-02-27T19:42:14.268Z,-0.33
2023-02-27T19:44:42.219Z,-0.23
2023-02-27T19:47:11.225Z,-0.18
2023-02-27T19:49:38.761Z,-0.71
2023-02-27T19:52:07.191Z,-0.31
2023-02-27T19:54:36.082Z,0.63
2023-02-27T19:57:03.574Z,0.12
2023-02-27T19:59:31.223Z,0.26
2023-02-27T20:01:59.269Z,-0.33
2023-02-27T20:04:28.436Z,0.23
2023-02-27T20:06:55.988Z,0.07
2023-02-27T20:09:24.152Z,0.42
2023-02-27T20:11:53.542Z,-0.59
2023-02-27T20:14:21.051Z,-1.13
2023-02-27T20:16:48.888Z,-1.27
2023-02-27T20:19:19.025Z,-1.42
2023-02-27T20:21:48.729Z,-1.13
2023-02-27T20:24:18.108Z,-0.81
2023-02-27T20:26:47.707Z,-0.38
2023-02-27T20:29:16.591Z,-0.28
2023-02-27T20:31:46.050Z,-1.00
2023-02-27T20:34:15.714Z,-0.85
2023-02-27T20:36:44.356Z,-0.91
2023-02-27T20:39:13.572Z,-0.99
2023-02-27T20:41:41.180Z,-1.61
2023-02-27T20:44:11.345Z,-1.84
2023-02-27T20:46:40.305Z,-1.90
2023-02-27T20:49:08.022Z,-1.89
2023-02-27T20:51:37.950Z,-1.82
2023-02-27T20:54:08.892Z,-1.97
2023-02-27T20:56:43.322Z,-1.94
2023-02-27T20:59:13.939Z,-1.96
2023-02-27T21:01:42.338Z,-1.99
2023-02-27T21:04:12.352Z,-2.00
2023-02-27T21:06:40.352Z,-2.00
2023-02-27T21:09:07.904Z,-1.93
2023-02-27T21:11:35.413Z,-1.92
2023-02-27T21:14:06.999Z,-1.86
2023-02-27T21:16:34.649Z,-1.90
2023-02-27T21:19:02.148Z,-1.97
2023-02-27T21:21:32.056Z,-1.96
2023-02-27T21:24:00.765Z,-1.93
2023-02-27T21:26:31.882Z,-1.34
2023-02-27T21:29:02.183Z,-1.60
2023-02-27T21:31:33.138Z,-1.77
2023-02-27T21:34:02.219Z,-1.90
2023-02-27T21:36:31.962Z,-1.70
2023-02-27T21:39:00.352Z,-1.64
2023-02-27T21:41:28.479Z,-1.66
2023-02-27T21:43:58.880Z,-0.66
2023-02-27T21:46:26.544Z,-1.53
2023-02-27T21:48:55.791Z,-1.29
2023-02-27T21:51:38.397Z,-1.89
2023-02-27T21:54:06.748Z,-1.94
2023-02-27T21:56:34.239Z,-1.69
2023-02-27T21:59:02.610Z,-2.13
2023-02-27T22:01:30.561Z,-2.21
2023-02-27T22:03:59.574Z,-2.17
2023-02-27T22:06:29.311Z,-2.06
2023-02-27T22:08:57.831Z,-2.26
2023-02-27T22:11:30.078Z,-2.53
2023-02-27T22:13:58.125Z,-2.63
2023-02-27T22:16:25.891Z,-2.67
2023-02-27T22:18:53.376Z,-2.57
2023-02-27T22:21:25.145Z,-2.75
2023-02-27T22:23:53.071Z,-2.81
2023-02-27T22:26:24.157Z,-2.84
2023-02-27T22:28:52.041Z,-2.82
2023-02-27T22:31:21.468Z,-2.88
2023-02-27T22:33:50.967Z,-2.98
2023-02-27T22:36:20.999Z,-3.07
2023-02-27T22:38:50.354Z,-3.10
2023-02-27T22:41:20.158Z,-3.11
2023-02-27T22:43:47.884Z,-3.14
2023-02-27T22:46:17.813Z,-3.16
2023-02-27T22:48:45.454Z,-3.30
2023-02-27T22:51:15.213Z,-3.31
2023-02-27T22:53:45.948Z,-3.28
2023-02-27T22:56:16.510Z,-3.29
2023-02-27T22:58:45.664Z,-3.29
2023-02-27T23:01:15.077Z,-3.31
2023-02-27T23:03:43.113Z,-3.42
2023-02-27T23:06:12.667Z,-3.41
2023-02-27T23:08:42.131Z,-2.85
2023-02-27T23:11:10.872Z,-2.49
2023-02-27T23:13:39.830Z,-2.55
2023-02-27T23:16:11.595Z,-2.52
2023-02-27T23:18:39.481Z,-2.86
2023-02-27T23:21:07.575Z,-3.27
2023-02-27T23:23:35.070Z,-3.56
2023-02-27T23:26:03.059Z,-3.54
2023-02-27T23:28:31.191Z,-3.24
2023-02-27T23:31:00.297Z,-3.47
2023-02-27T23:33:28.017Z,-3.56
2023-02-27T23:35:55.755Z,-3.44
2023-02-27T23:38:23.274Z,-3.63
2023-02-27T23:40:50.807Z,-3.75
2023-02-27T23:43:36.128Z,-3.89
2023-02-27T23:46:08.720Z,-3.88
2023-02-27T23:48:36.394Z,-3.88
2023-02-27T23:51:05.136Z,-4.00
2023-02-27T23:53:33.212Z,-3.98
2023-02-27T23:56:00.695Z,-3.76
2023-02-27T23:58:28.239Z,-3.69
